Main page
METAR-TAF:

METAR-TAF

Airports :

Portorož, Slovenia

Portorož Airport

latitude: 45-31N, longitude: 013-34E, elevation: 95 m

Current weather observation

The report was made 28 minutes ago, at 19:00 UTC
Wind 4 kt from the East/Southeast
Temperature 13°C
Humidity 94%
Pressure 1019 hPa
Visibility: 6000 m
Few clouds at a height of 3000 ft
Scattered clouds at a height of 5000 ft

METAR: LJPZ 211900Z 12004KT 6000 FEW030 SCT050 13/12 Q1019

Time: 21:28 (19:28 UTC)

Forecast

The report was made 2 hours and 28 minutes ago, at 17:00 UTC
Forecast valid from 21 at 18 UTC to 22 at 03 UTC
Wind 3 kt from the East
Visibility: 7000 m
Broken clouds at a height of 4500 ft

TAF: LJPZ 211700Z 2118/2203 10003KT 7000 BKN045

Weather observations and forecasts of more than 4000 airports (METAR and TAF reports).

The available stations are represented by yellow and red dots on the map.

Hover mouse over dot to see the name of the station.

Then click to see weather observations and forecasts.

To change the map : click on the green buttons with a black cross to zoom in, on the green button with a dash to zoom out, or on the green arrows for adjacent maps.


METAR-TAF: